sensor_id;sensor_type;location;lat;lon;timestamp;temperature;humidity
38209;DHT22;24016;52.102;11.584;2023-05-02T00:00:25;10.80;99.90
38209;DHT22;24016;52.102;11.584;2023-05-02T00:02:51;10.80;99.90
38209;DHT22;24016;52.102;11.584;2023-05-02T00:05:17;10.90;99.90
38209;DHT22;24016;52.102;11.584;2023-05-02T00:07:43;10.90;99.90
38209;DHT22;24016;52.102;11.584;2023-05-02T00:10:08;10.90;99.90
38209;DHT22;24016;52.102;11.584;2023-05-02T00:12:34;11.00;99.90
38209;DHT22;24016;52.102;11.584;2023-05-02T00:15:00;11.10;99.90
38209;DHT22;24016;52.102;11.584;2023-05-02T00:17:25;11.10;99.90
38209;DHT22;24016;52.102;11.584;2023-05-02T00:19:51;11.10;99.90
38209;DHT22;24016;52.102;11.584;2023-05-02T00:22:17;11.10;99.90
38209;DHT22;24016;52.102;11.584;2023-05-02T00:24:42;11.10;99.90
38209;DHT22;24016;52.102;11.584;2023-05-02T00:27:08;11.10;99.90
38209;DHT22;24016;52.102;11.584;2023-05-02T00:29:33;11.10;99.90
38209;DHT22;24016;52.102;11.584;2023-05-02T00:31:59;11.10;99.90
38209;DHT22;24016;52.102;11.584;2023-05-02T00:34:28;11.10;99.90
38209;DHT22;24016;52.102;11.584;2023-05-02T00:36:55;11.10;99.90
38209;DHT22;24016;52.102;11.584;2023-05-02T00:39:20;11.10;99.90
38209;DHT22;24016;52.102;11.584;2023-05-02T00:41:46;11.10;99.90
38209;DHT22;24016;52.102;11.584;2023-05-02T00:44:11;11.10;99.90
38209;DHT22;24016;52.102;11.584;2023-05-02T00:46:37;11.10;99.90
38209;DHT22;24016;52.102;11.584;2023-05-02T00:49:02;11.10;99.90
38209;DHT22;24016;52.102;11.584;2023-05-02T00:51:28;11.10;99.90
38209;DHT22;24016;52.102;11.584;2023-05-02T00:53:54;11.10;99.90
38209;DHT22;24016;52.102;11.584;2023-05-02T00:56:20;11.10;99.90
38209;DHT22;24016;52.102;11.584;2023-05-02T00:58:46;11.00;99.90
38209;DHT22;24016;52.102;11.584;2023-05-02T01:01:29;11.00;99.90
38209;DHT22;24016;52.102;11.584;2023-05-02T01:04:25;10.90;99.90
38209;DHT22;24016;52.102;11.584;2023-05-02T01:07:34;10.80;99.90
38209;DHT22;24016;52.102;11.584;2023-05-02T01:10:46;10.70;99.90
38209;DHT22;24016;52.102;11.584;2023-05-02T01:13:28;10.60;99.90
38209;DHT22;24016;52.102;11.584;2023-05-02T01:15:57;10.30;99.90
38209;DHT22;24016;52.102;11.584;2023-05-02T01:18:28;10.20;99.90
38209;DHT22;24016;52.102;11.584;2023-05-02T01:20:58;9.90;99.90
38209;DHT22;24016;52.102;11.584;2023-05-02T01:23:52;9.70;99.90
38209;DHT22;24016;52.102;11.584;2023-05-02T01:26:28;9.60;99.90
38209;DHT22;24016;52.102;11.584;2023-05-02T01:29:02;9.50;99.90
38209;DHT22;24016;52.102;11.584;2023-05-02T01:31:39;9.40;99.90
38209;DHT22;24016;52.102;11.584;2023-05-02T01:34:08;9.40;99.90
38209;DHT22;24016;52.102;11.584;2023-05-02T01:36:35;9.30;99.90
38209;DHT22;24016;52.102;11.584;2023-05-02T01:39:03;9.30;99.90
38209;DHT22;24016;52.102;11.584;2023-05-02T01:41:32;9.20;99.90
38209;DHT22;24016;52.102;11.584;2023-05-02T01:44:01;9.20;99.90
38209;DHT22;24016;52.102;11.584;2023-05-02T01:46:33;9.20;99.90
38209;DHT22;24016;52.102;11.584;2023-05-02T01:49:02;9.20;99.90
38209;DHT22;24016;52.102;11.584;2023-05-02T01:51:31;9.10;99.90
38209;DHT22;24016;52.102;11.584;2023-05-02T01:54:00;9.10;99.90
38209;DHT22;24016;52.102;11.584;2023-05-02T01:56:27;9.00;99.90
38209;DHT22;24016;52.102;11.584;2023-05-02T01:58:54;9.00;99.90
38209;DHT22;24016;52.102;11.584;2023-05-02T02:01:22;9.00;99.90
38209;DHT22;24016;52.102;11.584;2023-05-02T02:03:50;9.00;99.90
38209;DHT22;24016;52.102;11.584;2023-05-02T02:06:17;9.00;99.90
38209;DHT22;24016;52.102;11.584;2023-05-02T02:08:43;9.00;99.90
38209;DHT22;24016;52.102;11.584;2023-05-02T02:11:11;8.90;99.90
38209;DHT22;24016;52.102;11.584;2023-05-02T02:13:42;8.90;99.90
38209;DHT22;24016;52.102;11.584;2023-05-02T02:16:11;8.90;99.90
38209;DHT22;24016;52.102;11.584;2023-05-02T02:18:38;8.90;99.90
38209;DHT22;24016;52.102;11.584;2023-05-02T02:21:06;8.80;99.90
38209;DHT22;24016;52.102;11.584;2023-05-02T02:23:33;8.80;99.90
38209;DHT22;24016;52.102;11.584;2023-05-02T02:26:01;8.90;99.90
38209;DHT22;24016;52.102;11.584;2023-05-02T02:28:28;8.90;99.90
38209;DHT22;24016;52.102;11.584;2023-05-02T02:30:55;8.80;99.90
38209;DHT22;24016;52.102;11.584;2023-05-02T02:33:20;8.80;99.90
38209;DHT22;24016;52.102;11.584;2023-05-02T02:35:57;8.80;99.90
38209;DHT22;24016;52.102;11.584;2023-05-02T02:38:40;8.80;99.90
38209;DHT22;24016;52.102;11.584;2023-05-02T02:41:21;8.80;99.90
38209;DHT22;24016;52.102;11.584;2023-05-02T02:44:03;8.80;99.90
38209;DHT22;24016;52.102;11.584;2023-05-02T02:47:12;8.80;99.90
38209;DHT22;24016;52.102;11.584;2023-05-02T02:49:55;8.70;99.90
38209;DHT22;24016;52.102;11.584;2023-05-02T02:55:14;8.70;99.90
38209;DHT22;24016;52.102;11.584;2023-05-02T02:57:57;8.70;99.90
38209;DHT22;24016;52.102;11.584;2023-05-02T03:00:24;8.60;99.90
38209;DHT22;24016;52.102;11.584;2023-05-02T03:02:51;8.60;99.90
38209;DHT22;24016;52.102;11.584;2023-05-02T03:05:17;8.60;99.90
38209;DHT22;24016;52.102;11.584;2023-05-02T03:07:43;8.60;99.90
38209;DHT22;24016;52.102;11.584;2023-05-02T03:10:09;8.50;99.90
38209;DHT22;24016;52.102;11.584;2023-05-02T03:12:36;8.50;99.90
38209;DHT22;24016;52.102;11.584;2023-05-02T03:17:55;8.60;99.90
38209;DHT22;24016;52.102;11.584;2023-05-02T03:20:21;8.50;99.90
38209;DHT22;24016;52.102;11.584;2023-05-02T03:22:46;8.50;99.90
38209;DHT22;24016;52.102;11.584;2023-05-02T03:25:12;8.50;99.90
38209;DHT22;24016;52.102;11.584;2023-05-02T03:27:37;8.50;99.90
38209;DHT22;24016;52.102;11.584;2023-05-02T03:30:03;8.50;99.90
38209;DHT22;24016;52.102;11.584;2023-05-02T03:32:29;8.50;99.90
38209;DHT22;24016;52.102;11.584;2023-05-02T03:34:54;8.50;99.90
38209;DHT22;24016;52.102;11.584;2023-05-02T03:37:23;8.50;99.90
38209;DHT22;24016;52.102;11.584;2023-05-02T03:39:48;8.50;99.90
38209;DHT22;24016;52.102;11.584;2023-05-02T03:42:14;8.50;99.90
38209;DHT22;24016;52.102;11.584;2023-05-02T03:44:40;8.50;99.90
38209;DHT22;24016;52.102;11.584;2023-05-02T03:47:05;8.50;99.90
38209;DHT22;24016;52.102;11.584;2023-05-02T03:49:33;8.50;99.90
38209;DHT22;24016;52.102;11.584;2023-05-02T03:51:59;8.50;99.90
38209;DHT22;24016;52.102;11.584;2023-05-02T03:54:25;8.50;99.90
38209;DHT22;24016;52.102;11.584;2023-05-02T03:56:53;8.50;99.90
38209;DHT22;24016;52.102;11.584;2023-05-02T03:59:18;8.50;99.90
38209;DHT22;24016;52.102;11.584;2023-05-02T04:01:47;8.50;99.90
38209;DHT22;24016;52.102;11.584;2023-05-02T04:04:13;8.50;99.90
38209;DHT22;24016;52.102;11.584;2023-05-02T04:06:38;8.50;99.90
38209;DHT22;24016;52.102;11.584;2023-05-02T04:09:04;8.50;99.90
38209;DHT22;24016;52.102;11.584;2023-05-02T04:11:30;8.50;99.90
38209;DHT22;24016;52.102;11.584;2023-05-02T04:13:55;8.50;99.90
38209;DHT22;24016;52.102;11.584;2023-05-02T04:16:21;8.60;99.90
38209;DHT22;24016;52.102;11.584;2023-05-02T04:18:47;8.60;99.90
38209;DHT22;24016;52.102;11.584;2023-05-02T04:21:12;8.60;99.90
38209;DHT22;24016;52.102;11.584;2023-05-02T04:23:38;8.60;99.90
38209;DHT22;24016;52.102;11.584;2023-05-02T04:26:04;8.60;99.90
38209;DHT22;24016;52.102;11.584;2023-05-02T04:28:30;8.60;99.90
38209;DHT22;24016;52.102;11.584;2023-05-02T04:30:55;8.60;99.90
38209;DHT22;24016;52.102;11.584;2023-05-02T04:33:22;8.60;99.90
38209;DHT22;24016;52.102;11.584;2023-05-02T04:35:48;8.60;99.90
38209;DHT22;24016;52.102;11.584;2023-05-02T04:38:14;8.70;99.90
38209;DHT22;24016;52.102;11.584;2023-05-02T04:40:40;8.70;99.90
38209;DHT22;24016;52.102;11.584;2023-05-02T04:43:05;8.70;99.90
38209;DHT22;24016;52.102;11.584;2023-05-02T04:45:33;8.70;99.90
38209;DHT22;24016;52.102;11.584;2023-05-02T04:47:58;8.70;99.90
38209;DHT22;24016;52.102;11.584;2023-05-02T04:50:24;8.70;99.90
38209;DHT22;24016;52.102;11.584;2023-05-02T04:52:52;8.70;99.90
38209;DHT22;24016;52.102;11.584;2023-05-02T04:55:18;8.80;99.90
38209;DHT22;24016;52.102;11.584;2023-05-02T04:57:43;8.80;99.90
38209;DHT22;24016;52.102;11.584;2023-05-02T05:00:09;8.80;99.90
38209;DHT22;24016;52.102;11.584;2023-05-02T05:02:35;8.90;99.90
38209;DHT22;24016;52.102;11.584;2023-05-02T05:05:01;9.00;99.90
38209;DHT22;24016;52.102;11.584;2023-05-02T05:07:26;9.10;99.90
38209;DHT22;24016;52.102;11.584;2023-05-02T05:09:52;9.20;99.90
38209;DHT22;24016;52.102;11.584;2023-05-02T05:12:17;9.40;99.90
38209;DHT22;24016;52.102;11.584;2023-05-02T05:14:44;9.50;99.90
38209;DHT22;24016;52.102;11.584;2023-05-02T05:17:09;9.60;99.90
38209;DHT22;24016;52.102;11.584;2023-05-02T05:19:35;9.70;99.90
38209;DHT22;24016;52.102;11.584;2023-05-02T05:22:00;9.80;99.90
38209;DHT22;24016;52.102;11.584;2023-05-02T05:24:26;9.80;99.90
38209;DHT22;24016;52.102;11.584;2023-05-02T05:26:51;9.90;99.90
38209;DHT22;24016;52.102;11.584;2023-05-02T05:29:20;10.00;99.90
38209;DHT22;24016;52.102;11.584;2023-05-02T05:31:45;10.00;99.90
38209;DHT22;24016;52.102;11.584;2023-05-02T05:34:12;10.10;99.90
38209;DHT22;24016;52.102;11.584;2023-05-02T05:36:39;10.10;99.90
38209;DHT22;24016;52.102;11.584;2023-05-02T05:39:05;10.20;99.90
38209;DHT22;24016;52.102;11.584;2023-05-02T05:41:30;10.20;99.90
38209;DHT22;24016;52.102;11.584;2023-05-02T05:43:56;10.30;99.90
38209;DHT22;24016;52.102;11.584;2023-05-02T05:46:22;10.40;99.90
38209;DHT22;24016;52.102;11.584;2023-05-02T05:48:47;10.40;99.90
38209;DHT22;24016;52.102;11.584;2023-05-02T05:51:14;10.50;99.90
38209;DHT22;24016;52.102;11.584;2023-05-02T05:53:42;10.50;99.90
38209;DHT22;24016;52.102;11.584;2023-05-02T05:56:11;10.50;99.90
38209;DHT22;24016;52.102;11.584;2023-05-02T05:58:37;10.50;99.90
38209;DHT22;24016;52.102;11.584;2023-05-02T06:01:03;10.50;99.90
38209;DHT22;24016;52.102;11.584;2023-05-02T06:03:29;10.50;99.90
38209;DHT22;24016;52.102;11.584;2023-05-02T06:05:55;10.40;99.90
38209;DHT22;24016;52.102;11.584;2023-05-02T06:08:20;10.30;99.90
38209;DHT22;24016;52.102;11.584;2023-05-02T06:10:46;10.20;99.90
38209;DHT22;24016;52.102;11.584;2023-05-02T06:13:11;10.20;99.90
38209;DHT22;24016;52.102;11.584;2023-05-02T06:15:37;10.30;99.90
38209;DHT22;24016;52.102;11.584;2023-05-02T06:18:02;10.30;99.90
38209;DHT22;24016;52.102;11.584;2023-05-02T06:20:28;10.40;99.90
38209;DHT22;24016;52.102;11.584;2023-05-02T06:22:54;10.40;99.90
38209;DHT22;24016;52.102;11.584;2023-05-02T06:25:19;10.50;99.90
38209;DHT22;24016;52.102;11.584;2023-05-02T06:27:45;10.60;99.90
38209;DHT22;24016;52.102;11.584;2023-05-02T06:30:11;10.60;99.90
38209;DHT22;24016;52.102;11.584;2023-05-02T06:32:36;10.70;99.90
38209;DHT22;24016;52.102;11.584;2023-05-02T06:35:02;10.70;99.90
38209;DHT22;24016;52.102;11.584;2023-05-02T06:37:32;10.70;99.90
38209;DHT22;24016;52.102;11.584;2023-05-02T06:39:57;10.70;99.90
38209;DHT22;24016;52.102;11.584;2023-05-02T06:42:23;10.70;99.90
38209;DHT22;24016;52.102;11.584;2023-05-02T06:44:50;10.70;99.90
38209;DHT22;24016;52.102;11.584;2023-05-02T06:47:15;10.60;99.90
38209;DHT22;24016;52.102;11.584;2023-05-02T06:49:41;10.60;99.90
38209;DHT22;24016;52.102;11.584;2023-05-02T06:52:06;10.60;99.90
38209;DHT22;24016;52.102;11.584;2023-05-02T06:54:32;10.60;99.90
38209;DHT22;24016;52.102;11.584;2023-05-02T06:56:58;10.70;99.90
38209;DHT22;24016;52.102;11.584;2023-05-02T06:59:24;10.90;99.90
38209;DHT22;24016;52.102;11.584;2023-05-02T07:01:49;11.00;99.90
38209;DHT22;24016;52.102;11.584;2023-05-02T07:04:15;11.10;99.90
38209;DHT22;24016;52.102;11.584;2023-05-02T07:06:40;11.20;99.90
38209;DHT22;24016;52.102;11.584;2023-05-02T07:09:06;11.30;99.90
38209;DHT22;24016;52.102;11.584;2023-05-02T07:11:31;11.40;99.90
38209;DHT22;24016;52.102;11.584;2023-05-02T07:13:57;11.30;99.90
38209;DHT22;24016;52.102;11.584;2023-05-02T07:16:23;11.30;99.90
38209;DHT22;24016;52.102;11.584;2023-05-02T07:18:48;11.30;99.90
38209;DHT22;24016;52.102;11.584;2023-05-02T07:21:14;11.30;99.90
38209;DHT22;24016;52.102;11.584;2023-05-02T07:23:39;11.30;99.90
38209;DHT22;24016;52.102;11.584;2023-05-02T07:26:06;11.20;99.90
38209;DHT22;24016;52.102;11.584;2023-05-02T07:28:32;11.30;99.90
38209;DHT22;24016;52.102;11.584;2023-05-02T07:30:58;11.40;99.90
38209;DHT22;24016;52.102;11.584;2023-05-02T07:33:24;11.60;99.90
38209;DHT22;24016;52.102;11.584;2023-05-02T07:35:50;11.60;99.90
38209;DHT22;24016;52.102;11.584;2023-05-02T07:38:15;11.60;99.90
38209;DHT22;24016;52.102;11.584;2023-05-02T07:40:41;11.50;99.90
38209;DHT22;24016;52.102;11.584;2023-05-02T07:43:08;11.60;99.90
38209;DHT22;24016;52.102;11.584;2023-05-02T07:45:33;11.70;99.90
38209;DHT22;24016;52.102;11.584;2023-05-02T07:47:59;11.70;99.90
38209;DHT22;24016;52.102;11.584;2023-05-02T07:50:25;11.80;99.90
38209;DHT22;24016;52.102;11.584;2023-05-02T07:52:53;11.90;99.90
38209;DHT22;24016;52.102;11.584;2023-05-02T07:55:19;12.00;99.90
38209;DHT22;24016;52.102;11.584;2023-05-02T07:57:44;12.30;99.90
38209;DHT22;24016;52.102;11.584;2023-05-02T08:00:10;12.60;99.90
38209;DHT22;24016;52.102;11.584;2023-05-02T08:02:36;12.60;99.90
38209;DHT22;24016;52.102;11.584;2023-05-02T08:05:02;12.40;99.90
38209;DHT22;24016;52.102;11.584;2023-05-02T08:07:28;12.30;99.90
38209;DHT22;24016;52.102;11.584;2023-05-02T08:09:53;12.10;99.90
38209;DHT22;24016;52.102;11.584;2023-05-02T08:12:20;12.00;99.90
38209;DHT22;24016;52.102;11.584;2023-05-02T08:14:45;11.90;99.90
38209;DHT22;24016;52.102;11.584;2023-05-02T08:17:11;11.70;99.90
38209;DHT22;24016;52.102;11.584;2023-05-02T08:19:36;11.50;99.90
38209;DHT22;24016;52.102;11.584;2023-05-02T08:22:02;11.50;99.90
38209;DHT22;24016;52.102;11.584;2023-05-02T08:24:28;11.40;99.90
38209;DHT22;24016;52.102;11.584;2023-05-02T08:26:55;11.40;99.90
38209;DHT22;24016;52.102;11.584;2023-05-02T08:29:20;11.40;99.90
38209;DHT22;24016;52.102;11.584;2023-05-02T08:31:46;11.40;99.90
38209;DHT22;24016;52.102;11.584;2023-05-02T08:34:11;11.40;99.90
38209;DHT22;24016;52.102;11.584;2023-05-02T08:36:37;11.40;99.90
38209;DHT22;24016;52.102;11.584;2023-05-02T08:39:02;11.30;99.90
38209;DHT22;24016;52.102;11.584;2023-05-02T08:41:28;11.30;99.90
38209;DHT22;24016;52.102;11.584;2023-05-02T08:43:55;11.30;99.90
38209;DHT22;24016;52.102;11.584;2023-05-02T08:46:22;11.30;99.90
38209;DHT22;24016;52.102;11.584;2023-05-02T08:48:49;11.20;99.90
38209;DHT22;24016;52.102;11.584;2023-05-02T08:51:16;11.10;99.90
38209;DHT22;24016;52.102;11.584;2023-05-02T08:53:42;11.00;99.90
38209;DHT22;24016;52.102;11.584;2023-05-02T08:56:09;11.00;99.90
38209;DHT22;24016;52.102;11.584;2023-05-02T08:58:39;10.90;99.90
38209;DHT22;24016;52.102;11.584;2023-05-02T09:01:15;10.90;99.90
38209;DHT22;24016;52.102;11.584;2023-05-02T09:03:45;10.80;99.90
38209;DHT22;24016;52.102;11.584;2023-05-02T09:06:12;10.80;99.90
38209;DHT22;24016;52.102;11.584;2023-05-02T09:08:38;10.70;99.90
38209;DHT22;24016;52.102;11.584;2023-05-02T09:11:05;10.50;99.90
38209;DHT22;24016;52.102;11.584;2023-05-02T09:13:36;10.30;99.90
38209;DHT22;24016;52.102;11.584;2023-05-02T09:16:04;10.40;99.90
38209;DHT22;24016;52.102;11.584;2023-05-02T09:18:35;10.40;99.90
38209;DHT22;24016;52.102;11.584;2023-05-02T09:21:04;10.50;99.90
38209;DHT22;24016;52.102;11.584;2023-05-02T09:23:56;10.60;99.90
38209;DHT22;24016;52.102;11.584;2023-05-02T09:26:24;10.60;99.90
38209;DHT22;24016;52.102;11.584;2023-05-02T09:28:53;10.80;99.90
38209;DHT22;24016;52.102;11.584;2023-05-02T09:31:24;10.90;99.90
38209;DHT22;24016;52.102;11.584;2023-05-02T09:33:55;11.00;99.90
38209;DHT22;24016;52.102;11.584;2023-05-02T09:36:22;11.20;99.90
38209;DHT22;24016;52.102;11.584;2023-05-02T09:38:49;11.30;99.90
38209;DHT22;24016;52.102;11.584;2023-05-02T09:41:15;11.30;99.90
38209;DHT22;24016;52.102;11.584;2023-05-02T09:43:54;11.20;99.90
38209;DHT22;24016;52.102;11.584;2023-05-02T09:46:21;11.20;99.90
38209;DHT22;24016;52.102;11.584;2023-05-02T09:48:57;11.10;99.90
38209;DHT22;24016;52.102;11.584;2023-05-02T09:51:24;11.10;99.90
38209;DHT22;24016;52.102;11.584;2023-05-02T09:53:50;11.40;99.90
38209;DHT22;24016;52.102;11.584;2023-05-02T09:56:16;11.90;99.90
38209;DHT22;24016;52.102;11.584;2023-05-02T09:58:42;12.30;99.90
38209;DHT22;24016;52.102;11.584;2023-05-02T10:01:16;12.50;99.90
38209;DHT22;24016;52.102;11.584;2023-05-02T10:03:46;12.70;99.90
38209;DHT22;24016;52.102;11.584;2023-05-02T10:06:12;12.80;99.90
38209;DHT22;24016;52.102;11.584;2023-05-02T10:08:38;12.90;99.90
38209;DHT22;24016;52.102;11.584;2023-05-02T10:11:06;12.80;99.90
38209;DHT22;24016;52.102;11.584;2023-05-02T10:13:32;13.10;99.90
38209;DHT22;24016;52.102;11.584;2023-05-02T10:16:00;13.20;99.90
38209;DHT22;24016;52.102;11.584;2023-05-02T10:18:32;13.30;99.90
38209;DHT22;24016;52.102;11.584;2023-05-02T10:21:00;13.60;99.90
38209;DHT22;24016;52.102;11.584;2023-05-02T10:23:29;13.80;99.90
38209;DHT22;24016;52.102;11.584;2023-05-02T10:25:57;13.60;99.90
38209;DHT22;24016;52.102;11.584;2023-05-02T10:28:23;13.60;99.90
38209;DHT22;24016;52.102;11.584;2023-05-02T10:30:49;13.70;99.90
38209;DHT22;24016;52.102;11.584;2023-05-02T10:33:16;14.10;99.90
38209;DHT22;24016;52.102;11.584;2023-05-02T10:35:45;14.40;99.90
38209;DHT22;24016;52.102;11.584;2023-05-02T10:38:19;14.80;99.90
38209;DHT22;24016;52.102;11.584;2023-05-02T10:40:58;14.30;99.90
38209;DHT22;24016;52.102;11.584;2023-05-02T10:43:27;14.00;99.90
38209;DHT22;24016;52.102;11.584;2023-05-02T10:45:53;13.80;99.90
38209;DHT22;24016;52.102;11.584;2023-05-02T10:48:23;13.80;99.90
38209;DHT22;24016;52.102;11.584;2023-05-02T10:50:54;13.60;99.90
38209;DHT22;24016;52.102;11.584;2023-05-02T10:56:11;13.10;99.90
38209;DHT22;24016;52.102;11.584;2023-05-02T10:58:38;12.90;99.90
38209;DHT22;24016;52.102;11.584;2023-05-02T11:01:31;12.90;99.90
38209;DHT22;24016;52.102;11.584;2023-05-02T11:04:10;12.80;99.90
38209;DHT22;24016;52.102;11.584;2023-05-02T11:11:49;13.50;99.90
38209;DHT22;24016;52.102;11.584;2023-05-02T11:24:44;13.30;99.90
38209;DHT22;24016;52.102;11.584;2023-05-02T11:30:03;13.80;99.90
38209;DHT22;24016;52.102;11.584;2023-05-02T11:35:23;14.00;99.90
38209;DHT22;24016;52.102;11.584;2023-05-02T11:37:59;14.00;99.90
38209;DHT22;24016;52.102;11.584;2023-05-02T11:40:26;13.80;99.90
38209;DHT22;24016;52.102;11.584;2023-05-02T11:42:52;14.10;99.90
38209;DHT22;24016;52.102;11.584;2023-05-02T11:45:17;14.10;99.90
38209;DHT22;24016;52.102;11.584;2023-05-02T11:47:44;14.00;99.90
38209;DHT22;24016;52.102;11.584;2023-05-02T11:50:11;14.00;99.90
38209;DHT22;24016;52.102;11.584;2023-05-02T11:52:41;13.90;99.90
38209;DHT22;24016;52.102;11.584;2023-05-02T11:55:11;13.70;99.90
38209;DHT22;24016;52.102;11.584;2023-05-02T11:57:38;13.70;99.90
38209;DHT22;24016;52.102;11.584;2023-05-02T12:00:05;13.80;99.90
38209;DHT22;24016;52.102;11.584;2023-05-02T12:02:41;13.80;99.90
38209;DHT22;24016;52.102;11.584;2023-05-02T12:05:09;13.80;99.90
38209;DHT22;24016;52.102;11.584;2023-05-02T12:07:38;13.70;99.90
38209;DHT22;24016;52.102;11.584;2023-05-02T12:10:05;13.40;99.90
38209;DHT22;24016;52.102;11.584;2023-05-02T12:12:31;13.10;99.90
38209;DHT22;24016;52.102;11.584;2023-05-02T12:14:57;13.00;99.90
38209;DHT22;24016;52.102;11.584;2023-05-02T12:17:22;13.20;99.90
38209;DHT22;24016;52.102;11.584;2023-05-02T12:19:49;13.10;99.90
38209;DHT22;24016;52.102;11.584;2023-05-02T12:22:15;13.10;99.90
38209;DHT22;24016;52.102;11.584;2023-05-02T12:24:41;13.10;99.90
38209;DHT22;24016;52.102;11.584;2023-05-02T12:27:12;13.60;99.90
38209;DHT22;24016;52.102;11.584;2023-05-02T12:29:41;14.90;99.90
38209;DHT22;24016;52.102;11.584;2023-05-02T12:32:08;16.20;99.90
38209;DHT22;24016;52.102;11.584;2023-05-02T12:34:34;17.70;99.90
38209;DHT22;24016;52.102;11.584;2023-05-02T12:37:00;18.50;99.90
38209;DHT22;24016;52.102;11.584;2023-05-02T12:39:37;18.70;99.90
38209;DHT22;24016;52.102;11.584;2023-05-02T12:42:10;17.80;99.90
38209;DHT22;24016;52.102;11.584;2023-05-02T12:44:37;16.60;99.90
38209;DHT22;24016;52.102;11.584;2023-05-02T12:47:03;15.70;99.90
38209;DHT22;24016;52.102;11.584;2023-05-02T12:49:29;15.00;99.90
38209;DHT22;24016;52.102;11.584;2023-05-02T12:51:54;14.60;99.90
38209;DHT22;24016;52.102;11.584;2023-05-02T12:54:20;14.40;99.90
38209;DHT22;24016;52.102;11.584;2023-05-02T12:56:46;14.20;99.90
38209;DHT22;24016;52.102;11.584;2023-05-02T13:01:51;14.30;99.90
38209;DHT22;24016;52.102;11.584;2023-05-02T13:04:16;14.40;99.90
38209;DHT22;24016;52.102;11.584;2023-05-02T13:06:42;14.20;99.90
38209;DHT22;24016;52.102;11.584;2023-05-02T13:09:07;14.00;99.90
38209;DHT22;24016;52.102;11.584;2023-05-02T13:11:33;13.80;99.90
38209;DHT22;24016;52.102;11.584;2023-05-02T13:13:58;14.00;99.90
38209;DHT22;24016;52.102;11.584;2023-05-02T13:16:25;14.00;99.90
38209;DHT22;24016;52.102;11.584;2023-05-02T13:18:51;13.90;99.90
38209;DHT22;24016;52.102;11.584;2023-05-02T13:21:17;13.90;99.90
38209;DHT22;24016;52.102;11.584;2023-05-02T13:23:43;14.00;99.90
38209;DHT22;24016;52.102;11.584;2023-05-02T13:26:11;14.00;99.90
38209;DHT22;24016;52.102;11.584;2023-05-02T13:28:36;14.00;99.90
38209;DHT22;24016;52.102;11.584;2023-05-02T13:31:02;13.90;99.90
38209;DHT22;24016;52.102;11.584;2023-05-02T13:33:27;14.30;99.90
38209;DHT22;24016;52.102;11.584;2023-05-02T13:35:53;14.50;99.90
38209;DHT22;24016;52.102;11.584;2023-05-02T13:38:19;14.40;99.90
38209;DHT22;24016;52.102;11.584;2023-05-02T13:40:44;14.20;99.90
38209;DHT22;24016;52.102;11.584;2023-05-02T13:43:10;14.20;99.90
38209;DHT22;24016;52.102;11.584;2023-05-02T13:45:36;14.10;99.90
38209;DHT22;24016;52.102;11.584;2023-05-02T13:48:01;13.90;99.90
38209;DHT22;24016;52.102;11.584;2023-05-02T13:50:27;13.80;99.90
38209;DHT22;24016;52.102;11.584;2023-05-02T13:52:53;13.70;99.90
38209;DHT22;24016;52.102;11.584;2023-05-02T13:55:19;13.60;99.90
38209;DHT22;24016;52.102;11.584;2023-05-02T13:57:44;13.30;99.90
38209;DHT22;24016;52.102;11.584;2023-05-02T14:00:10;13.10;99.90
38209;DHT22;24016;52.102;11.584;2023-05-02T14:02:37;13.00;99.90
38209;DHT22;24016;52.102;11.584;2023-05-02T14:05:02;13.00;99.90
38209;DHT22;24016;52.102;11.584;2023-05-02T14:07:28;12.80;99.90
38209;DHT22;24016;52.102;11.584;2023-05-02T14:09:54;12.70;99.90
38209;DHT22;24016;52.102;11.584;2023-05-02T14:12:19;12.70;99.90
38209;DHT22;24016;52.102;11.584;2023-05-02T14:14:45;12.70;99.90
38209;DHT22;24016;52.102;11.584;2023-05-02T14:17:10;13.00;99.90
38209;DHT22;24016;52.102;11.584;2023-05-02T14:19:36;13.10;99.90
38209;DHT22;24016;52.102;11.584;2023-05-02T14:22:01;13.10;99.90
38209;DHT22;24016;52.102;11.584;2023-05-02T14:24:27;13.10;99.90
38209;DHT22;24016;52.102;11.584;2023-05-02T14:26:52;13.00;99.90
38209;DHT22;24016;52.102;11.584;2023-05-02T14:29:18;12.80;99.90
38209;DHT22;24016;52.102;11.584;2023-05-02T14:31:44;12.80;99.90
38209;DHT22;24016;52.102;11.584;2023-05-02T14:34:10;12.80;99.90
38209;DHT22;24016;52.102;11.584;2023-05-02T14:36:35;12.70;99.90
38209;DHT22;24016;52.102;11.584;2023-05-02T14:39:01;12.50;99.90
38209;DHT22;24016;52.102;11.584;2023-05-02T14:41:26;12.40;99.90
38209;DHT22;24016;52.102;11.584;2023-05-02T14:43:52;12.30;99.90
38209;DHT22;24016;52.102;11.584;2023-05-02T14:46:18;12.30;99.90
38209;DHT22;24016;52.102;11.584;2023-05-02T14:48:43;12.30;99.90
38209;DHT22;24016;52.102;11.584;2023-05-02T14:51:09;12.60;99.90
38209;DHT22;24016;52.102;11.584;2023-05-02T14:53:35;13.10;99.90
38209;DHT22;24016;52.102;11.584;2023-05-02T14:56:00;13.60;99.90
38209;DHT22;24016;52.102;11.584;2023-05-02T14:58:26;13.70;99.90
38209;DHT22;24016;52.102;11.584;2023-05-02T15:00:52;13.20;99.90
38209;DHT22;24016;52.102;11.584;2023-05-02T15:03:17;12.80;99.90
38209;DHT22;24016;52.102;11.584;2023-05-02T15:05:43;12.50;99.90
38209;DHT22;24016;52.102;11.584;2023-05-02T15:08:09;12.40;99.90
38209;DHT22;24016;52.102;11.584;2023-05-02T15:10:38;12.10;99.90
38209;DHT22;24016;52.102;11.584;2023-05-02T15:13:03;12.00;99.90
38209;DHT22;24016;52.102;11.584;2023-05-02T15:15:30;12.00;99.90
38209;DHT22;24016;52.102;11.584;2023-05-02T15:17:55;12.20;99.90
38209;DHT22;24016;52.102;11.584;2023-05-02T15:20:21;12.40;99.90
38209;DHT22;24016;52.102;11.584;2023-05-02T15:22:47;12.50;99.90
38209;DHT22;24016;52.102;11.584;2023-05-02T15:25:12;12.60;99.90
38209;DHT22;24016;52.102;11.584;2023-05-02T15:27:38;12.70;99.90
38209;DHT22;24016;52.102;11.584;2023-05-02T15:30:04;12.70;99.90
38209;DHT22;24016;52.102;11.584;2023-05-02T15:32:31;12.70;99.90
38209;DHT22;24016;52.102;11.584;2023-05-02T15:34:57;12.70;99.90
38209;DHT22;24016;52.102;11.584;2023-05-02T15:37:22;12.70;99.90
38209;DHT22;24016;52.102;11.584;2023-05-02T15:39:48;12.50;99.90
38209;DHT22;24016;52.102;11.584;2023-05-02T15:42:15;12.20;99.90
38209;DHT22;24016;52.102;11.584;2023-05-02T15:44:40;12.30;99.90
38209;DHT22;24016;52.102;11.584;2023-05-02T15:47:06;12.40;99.90
38209;DHT22;24016;52.102;11.584;2023-05-02T15:49:31;12.40;99.90
38209;DHT22;24016;52.102;11.584;2023-05-02T15:52:01;12.30;99.90
38209;DHT22;24016;52.102;11.584;2023-05-02T15:54:29;12.30;99.90